createdAt,value
2023-05-10T00:01:46.076Z,99858.19
2023-05-10T00:04:47.521Z,99854.94
2023-05-10T00:07:48.918Z,99853.72
2023-05-10T00:10:50.360Z,99854.59
2023-05-10T00:13:51.803Z,99852.19
2023-05-10T00:16:53.328Z,99856.66
2023-05-10T00:19:55.197Z,99855.81
2023-05-10T00:22:56.600Z,99862.13
2023-05-10T00:25:58.027Z,99853.41
2023-05-10T00:28:59.553Z,99856.84
2023-05-10T00:32:00.989Z,99848.78
2023-05-10T00:35:02.584Z,99841.97
2023-05-10T00:38:03.967Z,99848.88
2023-05-10T00:41:05.448Z,99854.63
2023-05-10T00:44:09.388Z,99857.28
2023-05-10T00:47:11.094Z,99858.41
2023-05-10T00:50:12.511Z,99867.66
2023-05-10T00:53:14.045Z,99870.75
2023-05-10T00:56:16.275Z,99867.81
2023-05-10T00:59:18.665Z,99864.59
2023-05-10T01:02:20.140Z,99861.94
2023-05-10T01:05:22.039Z,99860.22
2023-05-10T01:08:23.663Z,99856.91
2023-05-10T01:11:25.230Z,99866.75
2023-05-10T01:14:27.519Z,99868.81
2023-05-10T01:17:28.982Z,99868.16
2023-05-10T01:20:37.469Z,99872.59
2023-05-10T01:23:50.025Z,99872.19
2023-05-10T01:27:20.791Z,99875.13
2023-05-10T01:31:04.598Z,99871.53
2023-05-10T01:34:24.527Z,99871.69
2023-05-10T01:37:41.668Z,99868.28
2023-05-10T01:40:49.000Z,99873.59
2023-05-10T01:44:10.969Z,99878.03
2023-05-10T01:47:18.053Z,99880.84
2023-05-10T01:50:23.535Z,99874.63
2023-05-10T01:53:25.388Z,99882.91
2023-05-10T01:56:28.901Z,99884.38
2023-05-10T01:59:41.631Z,99884.88
2023-05-10T02:02:46.622Z,99887.13
2023-05-10T02:05:49.934Z,99891.72
2023-05-10T02:08:53.768Z,99889.00
2023-05-10T02:11:57.646Z,99896.28
2023-05-10T02:15:01.814Z,99904.25
2023-05-10T02:18:04.804Z,99896.88
2023-05-10T02:21:06.962Z,99904.13
2023-05-10T02:24:10.281Z,99902.34
2023-05-10T02:27:13.341Z,99914.84
2023-05-10T02:30:15.983Z,99910.28
2023-05-10T02:33:18.727Z,99904.84
2023-05-10T02:36:22.208Z,99916.19
2023-05-10T02:39:24.687Z,99909.56
2023-05-10T02:42:32.001Z,99913.03
2023-05-10T02:45:36.442Z,99909.38
2023-05-10T02:48:39.164Z,99914.59
2023-05-10T02:51:51.570Z,99914.47
2023-05-10T02:54:56.797Z,99918.19
2023-05-10T02:58:01.237Z,99925.09
2023-05-10T03:01:02.847Z,99922.69
2023-05-10T03:04:04.635Z,99928.34
2023-05-10T03:07:06.327Z,99917.59
2023-05-10T03:10:08.502Z,99921.84
2023-05-10T03:13:49.891Z,99922.03
2023-05-10T03:17:24.656Z,99919.47
2023-05-10T03:20:39.588Z,99912.63
2023-05-10T03:23:52.172Z,99920.50
2023-05-10T03:26:56.744Z,99921.44
2023-05-10T03:29:58.768Z,99925.03
2023-05-10T03:33:05.816Z,99923.47
2023-05-10T03:36:07.716Z,99923.31
2023-05-10T03:39:09.781Z,99927.22
2023-05-10T03:42:12.851Z,99939.53
2023-05-10T03:45:14.449Z,99938.78
2023-05-10T03:48:16.019Z,99930.97
2023-05-10T03:51:18.183Z,99942.53
2023-05-10T03:54:19.579Z,99947.50
2023-05-10T03:57:21.381Z,99954.59
2023-05-10T04:00:22.896Z,99951.25
2023-05-10T04:03:27.924Z,99952.97
2023-05-10T04:06:29.531Z,99956.72
2023-05-10T04:09:30.985Z,99959.63
2023-05-10T04:12:32.527Z,99966.66
2023-05-10T04:15:33.903Z,99969.88
2023-05-10T04:18:35.707Z,99972.47
2023-05-10T04:21:37.402Z,99970.75
2023-05-10T04:24:38.857Z,99966.13
2023-05-10T04:27:40.230Z,99972.94
2023-05-10T04:30:42.326Z,99972.19
2023-05-10T04:33:43.709Z,99972.34
2023-05-10T04:36:45.130Z,99976.78
2023-05-10T04:39:46.665Z,99976.38
2023-05-10T04:42:48.178Z,99973.13
2023-05-10T04:45:51.125Z,99982.72
2023-05-10T04:48:52.540Z,99974.44
2023-05-10T04:51:53.950Z,99968.09
2023-05-10T04:54:55.632Z,99974.34
2023-05-10T04:57:58.124Z,99977.16
2023-05-10T05:01:06.627Z,99977.44
2023-05-10T05:04:08.129Z,99985.38
2023-05-10T05:07:09.890Z,99982.47
2023-05-10T05:10:11.287Z,99984.94
2023-05-10T05:13:13.740Z,99989.31
2023-05-10T05:16:15.208Z,99985.66
2023-05-10T05:19:16.660Z,99995.22
2023-05-10T05:22:19.579Z,99989.31
2023-05-10T05:25:21.142Z,99991.97
2023-05-10T05:28:22.730Z,99972.13
2023-05-10T05:31:24.252Z,99984.16
2023-05-10T05:34:26.115Z,99988.00
2023-05-10T05:37:27.536Z,99995.75
2023-05-10T05:40:28.954Z,100005.28
2023-05-10T05:43:30.440Z,100002.25
2023-05-10T05:46:31.819Z,100013.91
2023-05-10T05:49:33.639Z,100009.47
2023-05-10T05:52:35.038Z,100007.75
2023-05-10T05:55:36.540Z,100020.41
2023-05-10T05:58:37.919Z,100013.31
2023-05-10T06:01:39.331Z,100015.03
2023-05-10T06:04:42.813Z,100023.66
2023-05-10T06:07:46.058Z,100017.34
2023-05-10T06:10:47.448Z,100029.75
2023-05-10T06:13:48.945Z,100030.69
2023-05-10T06:16:50.899Z,100034.28
2023-05-10T06:19:52.327Z,100044.88
2023-05-10T06:22:53.722Z,100049.16
2023-05-10T06:25:55.128Z,100057.38
2023-05-10T06:28:56.687Z,100058.41
2023-05-10T06:31:58.169Z,100059.06
2023-05-10T06:34:59.694Z,100060.59
2023-05-10T06:38:01.192Z,100061.56
2023-05-10T06:41:02.578Z,100063.88
2023-05-10T06:44:04.810Z,100062.50
2023-05-10T06:47:06.292Z,100059.94
2023-05-10T06:50:12.232Z,100072.78
2023-05-10T06:53:14.181Z,100073.31
2023-05-10T06:56:15.613Z,100079.88
2023-05-10T06:59:17.647Z,100079.88
2023-05-10T07:02:19.363Z,100078.16
2023-05-10T07:05:21.294Z,100084.41
2023-05-10T07:08:22.964Z,100084.06
2023-05-10T07:11:24.659Z,100079.97
2023-05-10T07:14:26.191Z,100081.31
2023-05-10T07:17:27.653Z,100085.25
2023-05-10T07:20:29.138Z,100083.00
2023-05-10T07:23:30.981Z,100076.69
2023-05-10T07:26:32.465Z,100079.06
2023-05-10T07:29:33.887Z,100078.56
2023-05-10T07:32:35.345Z,100084.44
2023-05-10T07:35:37.067Z,100083.94
2023-05-10T07:38:40.828Z,100090.63
2023-05-10T07:41:42.471Z,100090.00
2023-05-10T07:44:44.248Z,100091.94
2023-05-10T07:47:45.801Z,100090.69
2023-05-10T07:50:47.203Z,100090.31
2023-05-10T07:53:48.693Z,100084.38
2023-05-10T07:56:50.154Z,100078.78
2023-05-10T07:59:51.650Z,100075.38
2023-05-10T08:02:53.829Z,100094.06
2023-05-10T08:05:55.602Z,100080.97
2023-05-10T08:08:57.262Z,100085.13
2023-05-10T08:12:00.173Z,100087.34
2023-05-10T08:15:01.743Z,100085.44
2023-05-10T08:18:03.296Z,100094.75
2023-05-10T08:21:05.561Z,100091.72
2023-05-10T08:24:07.453Z,100089.94
2023-05-10T08:27:09.364Z,100095.94
2023-05-10T08:30:11.052Z,100098.09
2023-05-10T08:33:12.494Z,100095.84
2023-05-10T08:36:16.099Z,100099.91
2023-05-10T08:39:29.351Z,100103.44
2023-05-10T08:42:35.837Z,100092.69
2023-05-10T08:45:42.508Z,100097.44
2023-05-10T08:48:45.518Z,100103.47
2023-05-10T08:51:53.073Z,100112.09
2023-05-10T08:54:54.755Z,100121.59
2023-05-10T08:57:56.319Z,100118.25
2023-05-10T09:00:57.962Z,100114.09
2023-05-10T09:03:59.978Z,100112.06
2023-05-10T09:07:02.068Z,100112.81
2023-05-10T09:10:05.203Z,100126.97
2023-05-10T09:13:07.999Z,100123.28
2023-05-10T09:16:21.999Z,100118.16
2023-05-10T09:19:24.009Z,100126.53
2023-05-10T09:22:25.848Z,100135.28
2023-05-10T09:25:27.747Z,100127.50
2023-05-10T09:28:33.147Z,100132.25
2023-05-10T09:31:47.199Z,100133.19
2023-05-10T09:34:50.589Z,100126.03
2023-05-10T09:37:54.864Z,100134.31
2023-05-10T09:40:57.248Z,100139.59
2023-05-10T09:43:58.653Z,100144.38
2023-05-10T09:47:00.973Z,100149.31
2023-05-10T09:50:04.672Z,100143.97
2023-05-10T09:53:06.151Z,100137.34
2023-05-10T09:56:07.674Z,100143.91
2023-05-10T09:59:12.304Z,100144.13
2023-05-10T10:02:14.409Z,100150.38
2023-05-10T10:05:16.324Z,100141.97
2023-05-10T10:08:18.080Z,100145.84
2023-05-10T10:11:19.714Z,100137.06
2023-05-10T10:14:22.113Z,100152.03
2023-05-10T10:17:28.040Z,100158.03
2023-05-10T10:20:29.477Z,100148.84
2023-05-10T10:23:31.117Z,100145.13
2023-05-10T10:26:35.833Z,100149.88
2023-05-10T10:29:41.639Z,100152.25
2023-05-10T10:33:27.840Z,100154.09
2023-05-10T10:36:30.166Z,100156.88
2023-05-10T10:39:31.881Z,100151.00
2023-05-10T10:42:46.177Z,100151.66
2023-05-10T10:46:18.179Z,100157.50
2023-05-10T10:49:19.981Z,100159.63
2023-05-10T10:52:23.130Z,100150.16
2023-05-10T10:55:27.365Z,100148.56
2023-05-10T10:58:32.859Z,100153.13
2023-05-10T11:01:36.154Z,100153.88
2023-05-10T11:04:47.337Z,100151.44
2023-05-10T11:07:56.477Z,100149.97
2023-05-10T11:11:00.960Z,100161.06
2023-05-10T11:14:07.142Z,100163.75
2023-05-10T11:17:30.082Z,100167.47
2023-05-10T11:20:40.176Z,100163.75
2023-05-10T11:23:44.631Z,100167.25
2023-05-10T11:26:46.792Z,100167.38
2023-05-10T11:29:52.621Z,100163.97
2023-05-10T11:32:54.130Z,100169.81
2023-05-10T11:35:55.715Z,100167.03
2023-05-10T11:38:57.889Z,100173.63
2023-05-10T11:41:59.913Z,100179.50
2023-05-10T11:45:02.266Z,100179.97
2023-05-10T11:48:04.110Z,100189.22
2023-05-10T11:51:05.755Z,100184.75
2023-05-10T11:54:11.870Z,100180.94
2023-05-10T11:57:13.325Z,100188.00
2023-05-10T12:00:15.544Z,100200.25
2023-05-10T12:03:18.027Z,100200.69
2023-05-10T12:06:20.843Z,100209.53
2023-05-10T12:09:35.385Z,100204.13
2023-05-10T12:12:45.409Z,100205.75
2023-05-10T12:15:46.909Z,100208.03
2023-05-10T12:18:52.605Z,100204.50
2023-05-10T12:21:54.295Z,100211.13
2023-05-10T12:24:55.780Z,100203.63
2023-05-10T12:27:59.249Z,100197.94
2023-05-10T12:31:02.171Z,100202.91
2023-05-10T12:34:03.621Z,100205.66
2023-05-10T12:37:05.353Z,100202.41
2023-05-10T12:40:09.018Z,100196.47
2023-05-10T12:43:10.650Z,100203.75
2023-05-10T12:46:17.448Z,100198.44
2023-05-10T12:49:19.857Z,100204.03
2023-05-10T12:52:21.276Z,100200.38
2023-05-10T12:55:22.716Z,100193.69
2023-05-10T12:58:34.897Z,100202.41
2023-05-10T13:01:37.686Z,100201.47
2023-05-10T13:04:40.649Z,100193.91
2023-05-10T13:07:42.082Z,100194.13
2023-05-10T13:10:43.474Z,100191.59
2023-05-10T13:13:45.567Z,100190.31
2023-05-10T13:16:47.696Z,100191.38
2023-05-10T13:19:49.161Z,100190.53
2023-05-10T13:22:52.195Z,100183.47
2023-05-10T13:25:53.696Z,100187.81
2023-05-10T13:28:56.461Z,100192.91
2023-05-10T13:31:57.910Z,100191.63
2023-05-10T13:34:59.425Z,100189.06
2023-05-10T13:38:00.930Z,100188.84
2023-05-10T13:41:02.322Z,100180.75
2023-05-10T13:44:03.765Z,100183.00
2023-05-10T13:47:05.920Z,100186.53
2023-05-10T13:50:08.208Z,100185.00
2023-05-10T13:53:09.696Z,100185.75
2023-05-10T13:56:11.184Z,100178.41
2023-05-10T13:59:12.726Z,100172.50
2023-05-10T14:02:14.227Z,100179.47
2023-05-10T14:05:15.741Z,100172.41
2023-05-10T14:08:18.558Z,100171.69
2023-05-10T14:11:20.854Z,100170.91
2023-05-10T14:14:23.478Z,100171.66
2023-05-10T14:17:24.891Z,100165.34
2023-05-10T14:20:26.306Z,100165.19
2023-05-10T14:23:29.471Z,100165.31
2023-05-10T14:26:31.160Z,100155.72
2023-05-10T14:29:32.939Z,100163.28
2023-05-10T14:32:34.842Z,100155.38
2023-05-10T14:35:36.830Z,100165.66
2023-05-10T14:38:38.224Z,100159.34
2023-05-10T14:41:42.358Z,100164.88
2023-05-10T14:44:43.746Z,100161.34
2023-05-10T14:47:45.308Z,100159.97
2023-05-10T14:50:46.961Z,100163.38
2023-05-10T14:53:50.182Z,100159.44
2023-05-10T14:56:51.643Z,100153.31
2023-05-10T14:59:53.033Z,100160.25
2023-05-10T15:02:54.947Z,100164.44
2023-05-10T15:05:58.479Z,100164.34
2023-05-10T15:09:00.213Z,100157.19
2023-05-10T15:12:01.594Z,100159.69
2023-05-10T15:15:03.333Z,100152.09
2023-05-10T15:18:05.497Z,100150.84
2023-05-10T15:21:07.029Z,100138.88
2023-05-10T15:24:09.231Z,100139.91
2023-05-10T15:27:10.646Z,100144.06
2023-05-10T15:30:12.972Z,100154.63
2023-05-10T15:33:14.455Z,100151.28
2023-05-10T15:36:16.402Z,100149.28
2023-05-10T15:39:17.801Z,100144.16
2023-05-10T15:42:19.221Z,100149.53
2023-05-10T15:45:20.756Z,100143.78
2023-05-10T15:48:22.134Z,100144.63
2023-05-10T15:51:23.529Z,100156.09
2023-05-10T15:54:25.018Z,100150.59
2023-05-10T15:57:26.413Z,100149.41
2023-05-10T16:00:27.988Z,100150.63
2023-05-10T16:03:30.774Z,100150.47
2023-05-10T16:06:32.656Z,100152.16
2023-05-10T16:09:34.205Z,100152.00
2023-05-10T16:12:35.770Z,100155.44
2023-05-10T16:15:38.545Z,100157.94
2023-05-10T16:18:40.035Z,100154.91
2023-05-10T16:21:41.593Z,100154.00
2023-05-10T16:24:43.845Z,100152.09
2023-05-10T16:27:45.255Z,100151.91
2023-05-10T16:30:47.500Z,100159.53
2023-05-10T16:33:49.601Z,100157.88
2023-05-10T16:36:51.493Z,100163.50
2023-05-10T16:39:54.524Z,100160.31
2023-05-10T16:42:56.408Z,100164.19
2023-05-10T16:45:57.999Z,100167.31
2023-05-10T16:49:00.192Z,100168.88
2023-05-10T16:52:01.710Z,100166.84
2023-05-10T16:55:04.552Z,100172.22
2023-05-10T16:58:06.024Z,100172.00
2023-05-10T17:01:07.582Z,100174.34
2023-05-10T17:04:09.041Z,100177.97
2023-05-10T17:07:10.565Z,100177.41
2023-05-10T17:10:12.221Z,100182.66
2023-05-10T17:13:13.640Z,100186.06
2023-05-10T17:16:15.109Z,100191.28
2023-05-10T17:19:16.679Z,100189.34
2023-05-10T17:22:18.250Z,100186.44
2023-05-10T17:25:20.091Z,100193.28
2023-05-10T17:28:22.648Z,100197.94
2023-05-10T17:31:24.658Z,100194.72
2023-05-10T17:34:26.230Z,100192.16
2023-05-10T17:37:27.612Z,100192.78
2023-05-10T17:40:29.273Z,100201.44
2023-05-10T17:43:30.660Z,100200.03
2023-05-10T17:46:32.815Z,100203.53
2023-05-10T17:49:34.277Z,100209.38
2023-05-10T17:52:35.790Z,100210.22
2023-05-10T17:55:40.667Z,100211.75
2023-05-10T17:58:42.076Z,100218.34
2023-05-10T18:01:43.519Z,100217.13
2023-05-10T18:04:45.115Z,100216.19
2023-05-10T18:07:46.611Z,100211.97
2023-05-10T18:10:51.225Z,100210.13
2023-05-10T18:13:52.606Z,100212.41
2023-05-10T18:16:55.122Z,100218.50
2023-05-10T18:19:56.704Z,100211.66
2023-05-10T18:22:58.458Z,100215.63
2023-05-10T18:25:59.917Z,100224.47
2023-05-10T18:29:01.777Z,100218.03
2023-05-10T18:32:03.411Z,100217.56
2023-05-10T18:35:06.905Z,100224.06
2023-05-10T18:38:09.692Z,100218.84
2023-05-10T18:41:12.306Z,100227.31
2023-05-10T18:44:14.765Z,100225.59
2023-05-10T18:47:16.170Z,100222.16
2023-05-10T18:50:17.765Z,100225.31
2023-05-10T18:53:19.241Z,100233.59
2023-05-10T18:56:21.938Z,100229.19
2023-05-10T18:59:23.384Z,100226.81
2023-05-10T19:02:26.503Z,100236.63
2023-05-10T19:05:30.138Z,100239.03
2023-05-10T19:08:31.808Z,100239.25
2023-05-10T19:11:34.421Z,100245.09
2023-05-10T19:14:35.870Z,100249.56
2023-05-10T19:17:38.382Z,100253.63
2023-05-10T19:20:42.268Z,100260.84
2023-05-10T19:23:44.348Z,100258.19
2023-05-10T19:26:48.394Z,100273.47
2023-05-10T19:29:50.085Z,100272.63
2023-05-10T19:32:51.602Z,100275.34
2023-05-10T19:35:55.018Z,100270.09
2023-05-10T19:38:56.703Z,100275.22
2023-05-10T19:41:59.529Z,100272.47
2023-05-10T19:45:01.011Z,100270.94
2023-05-10T19:48:02.806Z,100283.97
2023-05-10T19:51:06.994Z,100275.56
2023-05-10T19:54:10.877Z,100281.91
2023-05-10T19:57:13.972Z,100281.22
2023-05-10T20:00:15.738Z,100281.38
2023-05-10T20:03:17.157Z,100283.66
2023-05-10T20:06:18.564Z,100292.72
2023-05-10T20:09:20.851Z,100287.53
2023-05-10T20:12:22.251Z,100297.56
2023-05-10T20:15:23.924Z,100292.06
2023-05-10T20:18:26.244Z,100289.94
2023-05-10T20:21:28.282Z,100286.69
2023-05-10T20:24:31.235Z,100290.44
2023-05-10T20:27:32.718Z,100297.22
2023-05-10T20:30:34.103Z,100299.19
2023-05-10T20:33:35.478Z,100298.06
2023-05-10T20:36:37.108Z,100298.00
2023-05-10T20:39:38.489Z,100294.91
2023-05-10T20:42:39.863Z,100291.38
2023-05-10T20:45:42.566Z,100287.91
2023-05-10T20:48:43.969Z,100285.25
2023-05-10T20:51:45.884Z,100288.13
2023-05-10T20:54:49.437Z,100284.03
2023-05-10T20:57:51.427Z,100293.63
2023-05-10T21:00:52.828Z,100291.41
2023-05-10T21:03:54.193Z,100288.81
2023-05-10T21:06:56.836Z,100292.44
2023-05-10T21:09:58.233Z,100291.09
2023-05-10T21:12:59.792Z,100292.00
2023-05-10T21:16:01.227Z,100287.53
2023-05-10T21:19:02.842Z,100297.47
2023-05-10T21:22:04.527Z,100297.81
2023-05-10T21:25:06.662Z,100289.56
2023-05-10T21:28:08.118Z,100282.53
2023-05-10T21:31:09.553Z,100281.94
2023-05-10T21:34:10.939Z,100289.97
2023-05-10T21:37:12.332Z,100290.31
2023-05-10T21:40:13.817Z,100284.13
2023-05-10T21:43:15.216Z,100285.84
2023-05-10T21:46:16.597Z,100279.41
2023-05-10T21:49:18.799Z,100289.09
2023-05-10T21:52:20.244Z,100285.66
2023-05-10T21:55:22.139Z,100285.53
2023-05-10T21:58:23.967Z,100289.63
2023-05-10T22:01:25.558Z,100296.44
2023-05-10T22:04:26.988Z,100287.16
2023-05-10T22:07:28.367Z,100278.59
2023-05-10T22:10:29.772Z,100286.56
2023-05-10T22:13:31.164Z,100289.38
2023-05-10T22:16:32.590Z,100288.59
2023-05-10T22:19:33.986Z,100289.19
2023-05-10T22:22:36.589Z,100290.06
2023-05-10T22:25:38.134Z,100285.94
2023-05-10T22:28:39.539Z,100285.16
2023-05-10T22:31:41.395Z,100291.38
2023-05-10T22:34:45.970Z,100301.38
2023-05-10T22:37:47.476Z,100295.47
2023-05-10T22:40:48.870Z,100306.72
2023-05-10T22:43:50.297Z,100298.69
2023-05-10T22:46:51.892Z,100294.06
2023-05-10T22:49:55.104Z,100287.69
2023-05-10T22:52:56.515Z,100298.97
2023-05-10T22:55:58.175Z,100294.72
2023-05-10T22:58:59.782Z,100297.69
2023-05-10T23:02:01.368Z,100298.53
2023-05-10T23:05:03.028Z,100299.47
2023-05-10T23:08:04.593Z,100302.38
2023-05-10T23:11:06.101Z,100310.53
2023-05-10T23:14:07.534Z,100308.28
2023-05-10T23:17:08.936Z,100305.09
2023-05-10T23:20:11.032Z,100304.34
2023-05-10T23:23:12.418Z,100314.94
2023-05-10T23:26:13.804Z,100332.00
2023-05-10T23:29:15.272Z,100320.72
2023-05-10T23:32:16.702Z,100319.28
2023-05-10T23:35:18.110Z,100319.59
2023-05-10T23:38:19.752Z,100316.81
2023-05-10T23:41:21.415Z,100317.75
2023-05-10T23:44:23.343Z,100337.09
2023-05-10T23:47:24.846Z,100322.13
2023-05-10T23:50:27.024Z,100323.34
2023-05-10T23:53:28.391Z,100321.78
2023-05-10T23:56:29.795Z,100315.91
2023-05-10T23:59:31.186Z,100324.09
